Scroll down
FLIGHT INFORMATION
Federal Express (FedEx)

FDX2

At Arrival Gate

KMEM
 EGSS
DATE: 2022-07-09
GATE:  -
GATE DEPARTURE: 09:03
TAKEOFF: 09:09
DATE: 2022-07-09
GATE:  -
LANDING: 16:32
GATE ARRIVAL: 16:39
FLIGHT DATA
Crew: 
Speed: 
507 kts
Altitude: 
37,019 ft
Stage Length: 
3,798.4 nm
Block Time: 
7.6 hrs
Flight Time: 
7.4 hrs
Fuel Used: 
113,914 lb
Cleared Route: KMEM OHULO PXV ROD MFD CXR JHW AUDIL PUPPY PAYGE CAM ENE AJJAY ALLEX NICSO 4850N 5040N 5130N 5220N LIMRI XETBO EVRIN NEKAP LAZTU ABDUK NUMPO OKESI HOFIK BEDEK EGSS
TRACK DATA
50,000 ft 1,000 kts
AIRCRAFT INFO AND CUMULATIVE STATS
Aircraft Type: 
B77LF
Registration: 
SELCAL: 
MSN/LN: 
41736 / 1616
Total Flights: 
4
Total Block Time: 
22.3 hrs
Total Flight Time: 
21.4 hrs
Total Fuel Used: 
355,325 lb
DATALINK LOG | Newest first | Current as of: 2022-08-16 07:07:57
LABEL SEQUENCE CONTENT Dn/Up
QD420016:39 18▼ Dn
QC355616:32▼ Dn
2U4206EGSS 092020Z AUTO 13009KT 090V220 9999 NCD 18/13 Q1030▲ Up
2S4206EGSS▼ Dn
UM792005CLX 1620 220709 CYQX CLRNCE 770 FDX2 CLEARED TO EGSS VIA NICSO 48N050W 50N040W 51N030W 52N020W LIMRI XETBO MNTN F350 M083.▲ Up
UM252004REQUESTING OCEANIC CLRNC CT CZQX CS EP ALLEX FL 370 ETA 11:31 SPD M0.83▼ Dn
UM201913CLEARED TO FL 370▲ Up
DM61903REQUEST FL 370 DUE TO A/C PERF▼ Dn
QB130809:09▼ Dn
QA060109:03 131.9▼ Dn
UM2125258KMEM ATIS - MEM ATIS INFO G 1254Z. 20006KT 10SM FEW070 FEW150 SCT250 28/23 A2997 (TWO NINER NINER SEVEN) RMK AO2 SLP142 CB DSNT NE-SE. SIMUL VISUAL APCHS IN USE RY 18L, 18R, 27. SIMUL DEPS IN USE RY 18R 18C 18L. 18L. NOTAM. THE ONE HUNDRED EIGHTY FOOT CRANE NORTH OF RWY 27 IS DOWN. TWY N CLSD BTN TWY P AND TWY M1 ; TWY J CLSD BTN TWY E AND TWY R ; TWY H CLSD BTN RWY 36C AND TWY J ; TWY R CLSD BTN RWY 36C AND TWY J . RWY 36R GS OTS. RWY 36C PAPEE OTS. READBACK ALL RWY * HOLD SHORT INSTRUCTIONS. RECAT WAKE TURBULENCE SEPARATION STANDARDS IN EFFECT. ALL ACFT CTC GC FOR PUSHBACK ONTO TWY N OR TWY J.. ...ADVS YOU HAVE INFO G.▲ Up
DM795248 ATIS KMEM D▼ Dn
2U5150KMEM 091254Z 20006KT 10SM FEW070 FEW150 SCT250 28/23 A2997 RMK AO2 SLP142 CB DSNT NE-SE T02780233▲ Up
2U5150CYYT 091300Z 18007KT 15SM FEW003 BKN180 17/12 A2994 RMK ST1AC5 SLP141 DENSITY ALT 800FT▲ Up
2U5149EGSS 091320Z AUTO 01009KT 290V100 9999 NCD 24/11 Q1030▲ Up
2U5149EGLL 091320Z AUTO 36007KT 270V090 9999 NCD 25/10 Q1030 NOSIG▲ Up
2U5148EINN 091330Z 19003KT 9999 FEW020 20/14 Q1034 NOSIG▲ Up
2S5148KMEM EGSS EGLL CYYT EINN▼ Dn
A35147CLEARED TO EGSS VIA SELPH7 OHULO DCT PXV DCT ROD DCT MFD DCT CXR DCT JHW Q84 CAM Q822 ALLEX N205B NICSO/M084F350 DCT 48N050W/M084F350 50N040W 51N030W 52N020W/M084F350 DCT LIMRI/N0483F370 DCT XETBO DCT EVRIN L607 NUMPO P2 HOFIK/N0458F180 P2 BEDEK BEDEK1L. SQUAWK 2173.▲ Up
Q05046[LINK ACK]▲ Up
Q05046[LINK TEST]▼ Dn


AIRCRAFT HISTORY
FLIGHT DATE FLIGHT NO. ORIGIN DESTINATION CLEARED ROUTE BLOCK TIME FLIGHT TIME FUEL USED PILOT
2022-07-09FDX2KMEM EGSS KMEM OHULO PXV ROD MFD CXR JHW AUDIL PUPPY PAYGE CAM ENE AJJAY ALLEX NICSO 4850N 5040N 5130N 5220N LIMRI XETBO EVRIN NEKAP LAZTU ABDUK NUMPO OKESI HOFIK BEDEK EGSS7.6 hrs7.4 hrs113,914 lbAllan Burek
2022-06-16FDX9893KPHL KMEM KPHL MXE PENSY FLIRT HYPER MRB EYTEE COLNS PERKS HVQ SPAYD YOCKY UNCKL RYANS BWG KMEM2.7 hrs2.5 hrs31,469 lbAllan Burek
2022-02-05FDX205KMEM KPHL KMEM DIYAB WAKOL SWAPP GHATS FOUNT TONIO KONGO NEALS SITTR ASBUR DENNY MAULS GVE KPHL2.2 hrs2 hrs35,030 lbJohn Binner
2021-07-07FDX707EDDF KMEM EDDF OBOKA ROCUH TINIK TORNU BREDA GALSO AMRIV MOMIC SUMUM BLIXY ARREK ERING TOBIX TUGPO TERKO SIRGO FERIT LAM UGBET CPT KENET GAVGO DEZZU DIKAS LUFTU STU BANBA DINIM 5120N 5130N 5040N 4750N PORTI MIILS CABCI NIPPY KRAZZ GONZZ HANKK JHW DORET WWSHR DUTSH KLYNE SEELA CREEP PXV KMEM9.8 hrs9.5 hrs174,912 lbCharles Harris